createdAt,value
2018-02-05T00:00:00.482Z,18.67
2018-02-05T00:02:29.264Z,18.67
2018-02-05T00:04:57.144Z,18.71
2018-02-05T00:07:25.272Z,18.69
2018-02-05T00:09:53.096Z,18.69
2018-02-05T00:12:20.892Z,18.67
2018-02-05T00:14:48.748Z,18.74
2018-02-05T00:17:16.524Z,18.83
2018-02-05T00:19:44.275Z,18.86
2018-02-05T00:22:15.238Z,18.85
2018-02-05T00:24:43.736Z,18.88
2018-02-05T00:27:11.632Z,18.81
2018-02-05T00:29:39.379Z,18.80
2018-02-05T00:32:07.217Z,18.86
2018-02-05T00:34:34.977Z,18.77
2018-02-05T00:37:02.862Z,18.87
2018-02-05T00:39:30.691Z,18.85
2018-02-05T00:41:58.473Z,20.71
2018-02-05T00:44:29.395Z,27.45
2018-02-05T00:46:57.101Z,29.82
2018-02-05T00:49:24.868Z,28.03
2018-02-05T00:51:52.862Z,29.39
2018-02-05T00:54:20.593Z,27.57
2018-02-05T00:56:48.471Z,30.24
2018-02-05T00:59:16.627Z,30.60
2018-02-05T01:01:44.215Z,30.77
2018-02-05T01:04:11.791Z,28.24
2018-02-05T01:06:39.400Z,30.04
2018-02-05T01:09:07.108Z,29.97
2018-02-05T01:11:34.659Z,28.97
2018-02-05T01:14:02.266Z,28.78
2018-02-05T01:16:30.084Z,29.07
2018-02-05T01:18:57.639Z,29.37
2018-02-05T01:21:25.214Z,30.45
2018-02-05T01:23:53.109Z,30.03
2018-02-05T01:26:20.819Z,29.81
2018-02-05T01:28:48.727Z,28.74
2018-02-05T01:31:16.527Z,27.82
2018-02-05T01:33:44.190Z,26.85
2018-02-05T01:36:12.459Z,28.28
2018-02-05T01:38:40.408Z,29.19
2018-02-05T01:41:08.013Z,29.46
2018-02-05T01:43:35.657Z,29.98
2018-02-05T01:46:03.265Z,29.71
2018-02-05T01:48:30.998Z,26.18
2018-02-05T01:50:58.720Z,27.05
2018-02-05T01:53:26.734Z,30.21
2018-02-05T01:55:54.739Z,31.23
2018-02-05T01:58:22.338Z,22.95
2018-02-05T02:00:50.028Z,21.52
2018-02-05T02:03:17.576Z,21.04
2018-02-05T02:05:45.222Z,20.85
2018-02-05T02:08:12.893Z,20.65
2018-02-05T02:10:42.118Z,20.47
2018-02-05T02:13:09.777Z,20.37
2018-02-05T02:15:37.417Z,20.22
2018-02-05T02:18:05.031Z,20.10
2018-02-05T02:20:32.807Z,20.02
2018-02-05T02:23:00.482Z,19.90
2018-02-05T02:25:28.170Z,19.87
2018-02-05T02:27:55.861Z,19.80
2018-02-05T02:30:24.642Z,19.76
2018-02-05T02:32:52.256Z,19.64
2018-02-05T02:35:19.958Z,19.61
2018-02-05T02:37:47.625Z,19.59
2018-02-05T02:40:15.390Z,19.67
2018-02-05T02:42:42.998Z,19.64
2018-02-05T02:45:10.793Z,19.72
2018-02-05T02:47:38.599Z,19.71
2018-02-05T02:50:06.378Z,19.78
2018-02-05T02:52:34.121Z,19.80
2018-02-05T02:55:01.856Z,19.79
2018-02-05T02:57:29.717Z,19.78
2018-02-05T02:59:57.722Z,19.74
2018-02-05T03:02:25.525Z,19.73
2018-02-05T03:04:53.665Z,19.67
2018-02-05T03:07:21.460Z,19.59
2018-02-05T03:09:49.170Z,19.58
2018-02-05T03:12:16.741Z,19.59
2018-02-05T03:14:44.366Z,19.68
2018-02-05T03:17:11.930Z,21.50
2018-02-05T03:19:39.503Z,22.13
2018-02-05T03:22:07.057Z,21.55
2018-02-05T03:24:35.041Z,20.21
2018-02-05T03:27:02.969Z,19.83
2018-02-05T03:29:31.083Z,19.70
2018-02-05T03:31:58.610Z,19.57
2018-02-05T03:34:26.171Z,19.57
2018-02-05T03:36:54.753Z,19.46
2018-02-05T03:39:22.451Z,19.39
2018-02-05T03:41:49.974Z,19.26
2018-02-05T03:44:17.512Z,19.24
2018-02-05T03:46:45.137Z,19.18
2018-02-05T03:49:12.646Z,19.18
2018-02-05T03:51:40.224Z,19.17
2018-02-05T03:54:07.897Z,19.17
2018-02-05T03:56:35.408Z,19.21
2018-02-05T03:59:02.981Z,19.30
2018-02-05T04:01:30.497Z,19.41
2018-02-05T04:03:58.046Z,19.40
2018-02-05T04:06:25.566Z,19.34
2018-02-05T04:08:53.195Z,19.33
2018-02-05T04:11:20.707Z,19.35
2018-02-05T04:13:48.204Z,19.33
2018-02-05T04:16:15.785Z,19.28
2018-02-05T04:18:43.301Z,19.29
2018-02-05T04:21:10.831Z,19.23
2018-02-05T04:23:38.389Z,19.17
2018-02-05T04:26:05.910Z,19.13
2018-02-05T04:28:33.432Z,19.17
2018-02-05T04:31:00.981Z,19.15
2018-02-05T04:33:28.537Z,19.12
2018-02-05T04:35:56.049Z,19.07
2018-02-05T04:38:24.505Z,19.03
2018-02-05T04:40:52.375Z,19.02
2018-02-05T04:43:19.903Z,19.03
2018-02-05T04:45:47.440Z,18.94
2018-02-05T04:48:15.293Z,18.91
2018-02-05T04:50:42.839Z,18.87
2018-02-05T04:53:10.349Z,18.84
2018-02-05T04:55:37.862Z,18.84
2018-02-05T04:58:05.412Z,18.86
2018-02-05T05:00:33.003Z,18.96
2018-02-05T05:03:00.582Z,18.96
2018-02-05T05:05:28.079Z,19.01
2018-02-05T05:07:55.652Z,19.10
2018-02-05T05:10:23.178Z,19.10
2018-02-05T05:12:50.699Z,19.05
2018-02-05T05:15:18.383Z,19.12
2018-02-05T05:17:46.874Z,19.10
2018-02-05T05:20:14.399Z,18.99
2018-02-05T05:22:41.921Z,19.03
2018-02-05T05:25:09.739Z,19.01
2018-02-05T05:27:37.297Z,19.01
2018-02-05T05:30:04.814Z,19.00
2018-02-05T05:32:32.331Z,18.93
2018-02-05T05:34:59.886Z,18.90
2018-02-05T05:37:27.434Z,18.88
2018-02-05T05:39:54.971Z,18.86
2018-02-05T05:42:22.503Z,18.88
2018-02-05T05:44:50.062Z,18.87
2018-02-05T05:47:17.582Z,18.84
2018-02-05T05:49:45.116Z,18.86
2018-02-05T05:52:12.624Z,18.78
2018-02-05T05:54:40.173Z,18.76
2018-02-05T05:57:07.764Z,18.74
2018-02-05T05:59:35.325Z,18.79
2018-02-05T06:02:02.842Z,18.72
2018-02-05T06:04:30.374Z,18.76
2018-02-05T06:06:57.931Z,18.83
2018-02-05T06:09:25.449Z,18.95
2018-02-05T06:11:53.297Z,19.02
2018-02-05T06:14:20.819Z,19.03
2018-02-05T06:16:48.375Z,18.98
2018-02-05T06:19:15.880Z,19.01
2018-02-05T06:21:43.395Z,19.09
2018-02-05T06:24:10.960Z,19.02
2018-02-05T06:26:38.459Z,19.03
2018-02-05T06:29:05.989Z,19.08
2018-02-05T06:31:33.554Z,19.03
2018-02-05T06:34:01.073Z,19.02
2018-02-05T06:36:28.602Z,18.95
2018-02-05T06:38:56.154Z,18.92
2018-02-05T06:41:23.686Z,18.91
2018-02-05T06:43:51.266Z,18.89
2018-02-05T06:46:18.767Z,18.81
2018-02-05T06:48:46.280Z,18.82
2018-02-05T06:51:25.910Z,18.79
2018-02-05T06:54:05.148Z,18.81
2018-02-05T06:56:32.722Z,18.78
2018-02-05T06:59:00.226Z,18.77
2018-02-05T07:01:27.742Z,18.68
2018-02-05T07:03:55.285Z,18.73
2018-02-05T07:06:22.826Z,18.69
2018-02-05T07:08:50.362Z,18.65
2018-02-05T07:11:17.924Z,18.61
2018-02-05T07:13:45.471Z,18.58
2018-02-05T07:16:12.977Z,18.59
2018-02-05T07:18:40.532Z,18.55
2018-02-05T07:21:08.036Z,18.55
2018-02-05T07:23:35.552Z,18.49
2018-02-05T07:26:03.096Z,18.44
2018-02-05T07:28:30.610Z,18.41
2018-02-05T07:30:58.165Z,18.42
2018-02-05T07:33:25.667Z,18.45
2018-02-05T07:35:53.216Z,18.56
2018-02-05T07:38:20.828Z,18.67
2018-02-05T07:40:48.344Z,18.85
2018-02-05T07:43:15.905Z,18.87
2018-02-05T07:45:43.460Z,18.98
2018-02-05T07:48:11.009Z,19.03
2018-02-05T07:50:38.511Z,19.09
2018-02-05T07:53:06.074Z,19.19
2018-02-05T07:55:33.603Z,19.14
2018-02-05T07:58:01.103Z,19.08
2018-02-05T08:00:28.664Z,19.00
2018-02-05T08:02:56.213Z,19.03
2018-02-05T08:05:23.740Z,18.98
2018-02-05T08:07:51.320Z,18.98
2018-02-05T08:10:18.864Z,18.92
2018-02-05T08:12:46.430Z,18.86
2018-02-05T08:15:13.941Z,18.83
2018-02-05T08:17:41.448Z,18.81
2018-02-05T08:20:08.997Z,18.79
2018-02-05T08:22:36.570Z,18.76
2018-02-05T08:25:04.088Z,19.04
2018-02-05T08:27:31.681Z,18.97
2018-02-05T08:29:59.233Z,18.89
2018-02-05T08:32:26.750Z,18.84
2018-02-05T08:34:54.304Z,18.79
2018-02-05T08:37:21.839Z,18.79
2018-02-05T08:39:49.476Z,18.83
2018-02-05T08:42:17.003Z,18.75
2018-02-05T08:44:44.643Z,18.97
2018-02-05T08:47:12.287Z,19.93
2018-02-05T08:49:39.970Z,20.78
2018-02-05T08:52:07.560Z,21.10
2018-02-05T08:54:35.477Z,22.26
2018-02-05T08:57:03.029Z,22.73
2018-02-05T08:59:30.630Z,23.48
2018-02-05T09:01:58.193Z,23.98
2018-02-05T09:04:25.817Z,24.56
2018-02-05T09:06:54.112Z,25.09
2018-02-05T09:09:22.054Z,25.55
2018-02-05T09:11:50.174Z,25.71
2018-02-05T09:14:18.371Z,25.89
2018-02-05T09:16:45.941Z,25.67
2018-02-05T09:19:13.832Z,25.39
2018-02-05T09:21:41.934Z,26.51
2018-02-05T09:24:09.644Z,26.08
2018-02-05T09:26:37.633Z,26.30
2018-02-05T09:29:05.283Z,27.15
2018-02-05T09:31:32.976Z,28.06
2018-02-05T09:34:00.608Z,28.48
2018-02-05T09:36:29.535Z,26.79
2018-02-05T09:38:57.139Z,28.07
2018-02-05T09:41:25.121Z,26.76
2018-02-05T09:43:54.095Z,27.22
2018-02-05T09:46:21.894Z,26.98
2018-02-05T09:48:49.582Z,27.19
2018-02-05T09:51:17.397Z,27.24
2018-02-05T09:53:45.172Z,26.37
2018-02-05T09:56:12.941Z,23.82
2018-02-05T09:58:40.627Z,22.35
2018-02-05T10:01:08.380Z,21.70
2018-02-05T10:03:36.474Z,21.24
2018-02-05T10:06:04.576Z,21.12
2018-02-05T10:08:32.345Z,21.12
2018-02-05T10:11:00.891Z,20.96
2018-02-05T10:13:28.634Z,20.93
2018-02-05T10:15:56.488Z,20.86
2018-02-05T10:18:25.055Z,20.84
2018-02-05T10:20:52.877Z,20.80
2018-02-05T10:23:20.552Z,20.74
2018-02-05T10:25:48.075Z,20.91
2018-02-05T10:28:15.624Z,20.90
2018-02-05T10:30:43.151Z,20.89
2018-02-05T10:33:10.770Z,21.00
2018-02-05T10:35:38.380Z,20.90
2018-02-05T10:38:05.916Z,20.76
2018-02-05T10:40:33.742Z,20.81
2018-02-05T10:43:01.558Z,20.60
2018-02-05T10:45:29.259Z,20.54
2018-02-05T10:47:56.912Z,20.70
2018-02-05T10:50:24.573Z,20.32
2018-02-05T10:52:52.299Z,19.91
2018-02-05T10:55:19.853Z,20.38
2018-02-05T10:57:47.371Z,20.45
2018-02-05T11:00:14.946Z,20.36
2018-02-05T11:02:42.496Z,20.35
2018-02-05T11:05:10.071Z,20.30
2018-02-05T11:07:37.584Z,20.37
2018-02-05T11:10:05.136Z,20.42
2018-02-05T11:12:32.650Z,20.36
2018-02-05T11:15:00.188Z,20.45
2018-02-05T11:17:27.737Z,20.49
2018-02-05T11:19:55.631Z,20.36
2018-02-05T11:22:23.518Z,20.43
2018-02-05T11:24:51.526Z,20.35
2018-02-05T11:27:19.129Z,20.32
2018-02-05T11:29:47.184Z,20.23
2018-02-05T11:32:16.074Z,20.31
2018-02-05T11:34:44.185Z,20.48
2018-02-05T11:37:12.851Z,20.59
2018-02-05T11:39:40.528Z,20.24
2018-02-05T11:42:08.225Z,20.37
2018-02-05T11:44:35.770Z,20.63
2018-02-05T11:47:03.531Z,20.46
2018-02-05T11:49:31.126Z,20.40
2018-02-05T11:51:58.675Z,20.38
2018-02-05T11:54:26.229Z,19.94
2018-02-05T11:56:53.786Z,19.82
2018-02-05T11:59:21.326Z,19.86
2018-02-05T12:01:48.876Z,20.20
2018-02-05T12:04:16.412Z,19.87
2018-02-05T12:06:43.973Z,19.94
2018-02-05T12:09:11.527Z,19.91
2018-02-05T12:11:39.089Z,19.89
2018-02-05T12:14:06.680Z,19.98
2018-02-05T12:16:34.292Z,19.93
2018-02-05T12:19:01.859Z,19.96
2018-02-05T12:21:29.381Z,19.95
2018-02-05T12:23:56.983Z,19.92
2018-02-05T12:26:25.335Z,20.04
2018-02-05T12:28:53.036Z,19.97
2018-02-05T12:31:20.574Z,20.00
2018-02-05T12:33:48.111Z,19.90
2018-02-05T12:36:15.660Z,19.86
2018-02-05T12:38:43.257Z,19.83
2018-02-05T12:41:10.813Z,20.17
2018-02-05T12:43:39.512Z,20.15
2018-02-05T12:46:07.244Z,20.04
2018-02-05T12:48:35.579Z,19.82
2018-02-05T12:51:03.153Z,19.78
2018-02-05T12:53:30.930Z,19.77
2018-02-05T12:55:58.814Z,19.81
2018-02-05T12:58:26.331Z,19.79
2018-02-05T13:00:54.358Z,19.78
2018-02-05T13:03:39.523Z,19.80
2018-02-05T13:06:11.646Z,19.78
2018-02-05T13:08:39.247Z,19.83
2018-02-05T13:11:06.801Z,19.86
2018-02-05T13:13:34.303Z,19.99
2018-02-05T13:16:01.854Z,20.38
2018-02-05T13:18:29.408Z,20.30
2018-02-05T13:20:57.322Z,20.33
2018-02-05T13:23:25.183Z,20.16
2018-02-05T13:25:52.744Z,20.35
2018-02-05T13:28:20.282Z,20.39
2018-02-05T13:30:47.820Z,20.26
2018-02-05T13:33:15.366Z,20.13
2018-02-05T13:35:42.935Z,20.13
2018-02-05T13:38:10.471Z,20.09
2018-02-05T13:40:38.053Z,20.10
2018-02-05T13:43:05.597Z,20.14
2018-02-05T13:45:33.138Z,20.03
2018-02-05T13:48:00.696Z,20.11
2018-02-05T13:50:28.218Z,20.21
2018-02-05T13:52:55.863Z,20.26
2018-02-05T13:55:23.409Z,20.12
2018-02-05T13:57:51.088Z,20.08
2018-02-05T14:00:18.621Z,20.23
2018-02-05T14:02:46.157Z,20.23
2018-02-05T14:05:13.746Z,20.28
2018-02-05T14:07:41.263Z,20.24
2018-02-05T14:10:08.808Z,20.23
2018-02-05T14:12:36.359Z,20.20
2018-02-05T14:15:03.925Z,20.21
2018-02-05T14:17:31.460Z,20.28
2018-02-05T14:19:59.079Z,20.24
2018-02-05T14:22:26.626Z,20.31
2018-02-05T14:24:55.380Z,20.26
2018-02-05T14:27:22.928Z,19.89
2018-02-05T14:29:50.513Z,19.72
2018-02-05T14:32:18.081Z,19.72
2018-02-05T14:34:45.607Z,19.78
2018-02-05T14:37:13.130Z,19.78
2018-02-05T14:39:40.676Z,19.72
2018-02-05T14:42:08.229Z,19.77
2018-02-05T14:44:35.742Z,19.80
2018-02-05T14:47:03.298Z,19.85
2018-02-05T14:49:30.838Z,19.82
2018-02-05T14:51:58.369Z,19.79
2018-02-05T14:54:25.943Z,19.87
2018-02-05T14:56:53.451Z,19.83
2018-02-05T14:59:20.967Z,19.85
2018-02-05T15:01:48.524Z,19.89
2018-02-05T15:04:16.065Z,20.06
2018-02-05T15:06:43.605Z,19.89
2018-02-05T15:09:11.149Z,19.86
2018-02-05T15:11:38.752Z,19.88
2018-02-05T15:14:06.293Z,19.54
2018-02-05T15:16:33.810Z,19.66
2018-02-05T15:19:01.355Z,19.64
2018-02-05T15:21:28.863Z,19.64
2018-02-05T15:23:56.399Z,19.58
2018-02-05T15:26:23.898Z,19.50
2018-02-05T15:28:51.474Z,19.86
2018-02-05T15:31:19.095Z,19.75
2018-02-05T15:33:46.828Z,19.99
2018-02-05T15:36:14.347Z,19.84
2018-02-05T15:38:41.889Z,20.15
2018-02-05T15:41:09.475Z,20.24
2018-02-05T15:43:37.034Z,20.30
2018-02-05T15:46:04.587Z,20.33
2018-02-05T15:48:32.092Z,20.26
2018-02-05T15:50:59.638Z,20.25
2018-02-05T15:53:27.153Z,20.15
2018-02-05T15:55:55.241Z,20.19
2018-02-05T15:58:22.763Z,20.15
2018-02-05T16:00:50.320Z,20.14
2018-02-05T16:03:17.847Z,20.15
2018-02-05T16:05:45.455Z,20.09
2018-02-05T16:08:13.015Z,20.05
2018-02-05T16:10:40.519Z,20.08
2018-02-05T16:13:08.066Z,20.05
2018-02-05T16:15:35.600Z,20.18
2018-02-05T16:18:03.148Z,20.32
2018-02-05T16:20:30.661Z,20.39
2018-02-05T16:23:01.359Z,20.40
2018-02-05T16:25:28.960Z,20.40
2018-02-05T16:27:56.503Z,20.42
2018-02-05T16:30:24.006Z,20.41
2018-02-05T16:32:51.553Z,20.36
2018-02-05T16:35:19.066Z,20.35
2018-02-05T16:37:46.603Z,20.31
2018-02-05T16:40:14.108Z,20.32
2018-02-05T16:42:41.893Z,20.37
2018-02-05T16:45:09.575Z,20.40
2018-02-05T16:47:37.149Z,20.43
2018-02-05T16:50:04.825Z,20.45
2018-02-05T16:52:33.104Z,20.48
2018-02-05T16:55:00.824Z,20.48
2018-02-05T16:57:28.619Z,20.50
2018-02-05T16:59:56.506Z,20.51
2018-02-05T17:02:24.404Z,20.51
2018-02-05T17:04:52.126Z,20.52
2018-02-05T17:07:19.717Z,20.54
2018-02-05T17:09:47.441Z,20.56
2018-02-05T17:12:14.952Z,20.57
2018-02-05T17:14:43.060Z,20.58
2018-02-05T17:17:12.065Z,20.60
2018-02-05T17:19:41.664Z,20.59
2018-02-05T17:22:13.875Z,20.59
2018-02-05T17:24:41.658Z,20.60
2018-02-05T17:27:09.213Z,20.62
2018-02-05T17:29:37.859Z,20.62
2018-02-05T17:50:19.883Z,20.59
2018-02-05T17:52:47.738Z,20.66
2018-02-05T17:55:15.560Z,20.68
2018-02-05T17:57:43.456Z,20.70
2018-02-05T18:00:10.979Z,20.71
2018-02-05T18:02:38.900Z,20.70
2018-02-05T18:05:06.686Z,20.72
2018-02-05T18:07:35.090Z,20.73
2018-02-05T18:10:02.613Z,20.72
2018-02-05T18:12:31.307Z,20.72
2018-02-05T18:14:59.285Z,20.73
2018-02-05T18:17:27.191Z,20.74
2018-02-05T18:19:54.952Z,20.73
2018-02-05T18:22:22.557Z,20.76
2018-02-05T18:24:50.090Z,20.74
2018-02-05T18:27:17.801Z,20.74
2018-02-05T18:29:45.931Z,20.74
2018-02-05T18:32:13.508Z,20.72
2018-02-05T18:34:41.938Z,20.73
2018-02-05T18:37:09.675Z,20.72
2018-02-05T18:39:37.598Z,20.73
2018-02-05T18:42:05.171Z,20.72
2018-02-05T18:44:32.749Z,20.72
2018-02-05T18:47:00.956Z,20.70
2018-02-05T18:49:28.815Z,20.63
2018-02-05T18:51:56.561Z,20.63
2018-02-05T18:54:24.116Z,20.56
2018-02-05T18:56:51.689Z,20.46
2018-02-05T18:59:19.200Z,20.30
2018-02-05T19:01:58.617Z,20.20
2018-02-05T19:04:26.165Z,20.13
2018-02-05T19:06:53.715Z,20.16
2018-02-05T19:09:21.225Z,20.18
2018-02-05T19:11:48.752Z,20.21
2018-02-05T19:14:16.314Z,20.19
2018-02-05T19:16:43.847Z,20.14
2018-02-05T19:19:11.417Z,20.04
2018-02-05T19:21:38.936Z,19.83
2018-02-05T19:24:06.481Z,19.97
2018-02-05T19:26:34.125Z,19.94
2018-02-05T19:29:01.699Z,19.95
2018-02-05T19:31:29.299Z,19.98
2018-02-05T19:33:56.861Z,19.99
2018-02-05T19:36:25.405Z,20.27
2018-02-05T19:38:52.933Z,20.34
2018-02-05T19:41:20.491Z,20.23
2018-02-05T19:43:48.045Z,20.09
2018-02-05T19:46:15.702Z,19.94
2018-02-05T19:48:43.210Z,19.85
2018-02-05T19:51:10.748Z,19.90
2018-02-05T19:53:38.321Z,19.98
2018-02-05T19:56:05.845Z,19.83
2018-02-05T19:58:33.751Z,19.84
2018-02-05T20:01:01.299Z,19.84
2018-02-05T20:03:28.855Z,19.95
2018-02-05T20:05:56.434Z,19.94
2018-02-05T20:08:23.990Z,19.96
2018-02-05T20:10:51.539Z,19.95
2018-02-05T20:13:19.386Z,20.20
2018-02-05T20:15:47.132Z,20.07
2018-02-05T20:18:14.903Z,20.06
2018-02-05T20:20:42.868Z,20.04
2018-02-05T20:23:10.413Z,20.09
2018-02-05T20:25:38.187Z,20.14
2018-02-05T20:28:05.746Z,20.14
2018-02-05T20:30:33.251Z,20.12
2018-02-05T20:33:00.843Z,20.10
2018-02-05T20:35:28.370Z,20.14
2018-02-05T20:37:56.076Z,20.12
2018-02-05T20:40:23.754Z,20.13
2018-02-05T20:42:51.293Z,20.15
2018-02-05T20:45:19.137Z,20.08
2018-02-05T20:47:46.678Z,20.11
2018-02-05T20:50:14.291Z,20.10
2018-02-05T20:52:41.828Z,20.24
2018-02-05T20:55:09.360Z,20.09
2018-02-05T20:57:37.944Z,20.14
2018-02-05T21:00:06.801Z,20.09
2018-02-05T21:02:34.346Z,20.09
2018-02-05T21:05:01.858Z,20.06
2018-02-05T21:07:29.420Z,20.03
2018-02-05T21:09:56.949Z,19.95
2018-02-05T21:12:25.482Z,19.91
2018-02-05T21:14:53.001Z,19.84
2018-02-05T21:17:20.539Z,19.88
2018-02-05T21:19:48.067Z,19.92
2018-02-05T21:22:15.674Z,19.83
2018-02-05T21:24:43.201Z,19.88
2018-02-05T21:27:10.748Z,19.87
2018-02-05T21:29:38.264Z,19.87
2018-02-05T21:32:05.822Z,19.91
2018-02-05T21:34:33.379Z,19.93
2018-02-05T21:37:01.942Z,19.85
2018-02-05T21:39:29.465Z,19.81
2018-02-05T21:41:57.004Z,19.81
2018-02-05T21:44:25.443Z,19.81
2018-02-05T21:46:52.980Z,19.84
2018-02-05T21:49:20.539Z,19.81
2018-02-05T21:51:48.099Z,19.76
2018-02-05T21:54:15.657Z,19.78
2018-02-05T21:56:43.182Z,19.76
2018-02-05T21:59:10.748Z,19.74
2018-02-05T22:01:38.275Z,19.73
2018-02-05T22:04:05.767Z,19.73
2018-02-05T22:06:33.323Z,19.66
2018-02-05T22:09:00.847Z,19.66
2018-02-05T22:11:28.398Z,19.56
2018-02-05T22:13:55.924Z,19.63
2018-02-05T22:16:23.468Z,19.60
2018-02-05T22:18:50.996Z,19.50
2018-02-05T22:21:18.545Z,19.55
2018-02-05T22:23:46.065Z,19.50
2018-02-05T22:26:13.637Z,19.50
2018-02-05T22:28:41.156Z,19.43
2018-02-05T22:31:08.870Z,19.48
2018-02-05T22:33:36.419Z,19.44
2018-02-05T22:36:03.958Z,19.43
2018-02-05T22:38:31.497Z,19.43
2018-02-05T22:40:59.011Z,19.44
2018-02-05T22:43:26.574Z,19.40
2018-02-05T22:45:54.093Z,19.39
2018-02-05T22:48:21.623Z,19.42
2018-02-05T22:50:49.175Z,19.38
2018-02-05T22:53:16.676Z,19.37
2018-02-05T22:55:44.225Z,19.37
2018-02-05T22:58:11.734Z,19.31
2018-02-05T23:00:39.329Z,19.25
2018-02-05T23:03:06.855Z,19.29
2018-02-05T23:05:34.379Z,19.25
2018-02-05T23:08:01.930Z,19.24
2018-02-05T23:10:29.491Z,19.26
2018-02-05T23:12:57.292Z,19.22
2018-02-05T23:15:25.514Z,19.17
2018-02-05T23:17:53.034Z,19.17
2018-02-05T23:20:20.608Z,19.20
2018-02-05T23:22:48.109Z,19.15
2018-02-05T23:25:15.658Z,19.13
2018-02-05T23:27:43.192Z,19.13
2018-02-05T23:30:10.693Z,19.12
2018-02-05T23:32:38.230Z,19.11
2018-02-05T23:35:05.729Z,19.14
2018-02-05T23:37:33.259Z,19.11
2018-02-05T23:40:00.775Z,19.10
2018-02-05T23:42:28.331Z,19.11
2018-02-05T23:44:55.890Z,19.09
2018-02-05T23:47:23.401Z,19.09
2018-02-05T23:49:50.899Z,19.06
2018-02-05T23:52:18.461Z,19.07
2018-02-05T23:54:45.996Z,19.11
2018-02-05T23:57:13.538Z,19.09
2018-02-05T23:59:41.065Z,19.07
